createdAt,value
2019-03-09T00:00:09.255Z,0.00
2019-03-09T00:01:09.201Z,0.00
2019-03-09T00:02:09.219Z,0.00
2019-03-09T00:03:09.187Z,0.00
2019-03-09T00:04:09.191Z,0.00
2019-03-09T00:05:09.217Z,0.00
2019-03-09T00:06:09.181Z,0.00
2019-03-09T00:07:09.210Z,0.00
2019-03-09T00:08:09.180Z,0.00
2019-03-09T00:09:09.142Z,0.00
2019-03-09T00:10:09.203Z,0.00
2019-03-09T00:11:09.171Z,0.00
2019-03-09T00:12:09.141Z,0.00
2019-03-09T00:13:09.124Z,0.00
2019-03-09T00:14:09.137Z,0.00
2019-03-09T00:15:09.100Z,0.00
2019-03-09T00:16:09.101Z,0.00
2019-03-09T00:17:09.091Z,0.00
2019-03-09T00:18:09.086Z,0.00
2019-03-09T00:19:09.101Z,0.00
2019-03-09T00:20:09.099Z,0.00
2019-03-09T00:21:09.110Z,0.00
2019-03-09T00:22:09.114Z,0.00
2019-03-09T00:23:09.041Z,0.00
2019-03-09T00:24:09.145Z,0.00
2019-03-09T00:25:09.037Z,0.00
2019-03-09T00:26:09.050Z,0.00
2019-03-09T00:27:09.061Z,0.00
2019-03-09T00:28:09.010Z,0.00
2019-03-09T00:29:09.104Z,0.00
2019-03-09T00:30:09.042Z,0.00
2019-03-09T00:31:08.991Z,0.00
2019-03-09T00:32:09.010Z,0.00
2019-03-09T00:33:09.010Z,0.00
2019-03-09T00:34:08.995Z,0.00
2019-03-09T00:35:08.984Z,0.00
2019-03-09T00:36:08.953Z,0.00
2019-03-09T00:37:08.950Z,0.00
2019-03-09T00:38:08.938Z,0.00
2019-03-09T00:39:08.935Z,0.00
2019-03-09T00:40:08.952Z,0.00
2019-03-09T00:41:08.938Z,0.00
2019-03-09T00:42:08.947Z,0.00
2019-03-09T00:43:08.931Z,0.00
2019-03-09T00:44:08.914Z,0.00
2019-03-09T00:45:08.892Z,0.00
2019-03-09T00:46:08.880Z,0.00
2019-03-09T00:47:08.884Z,0.00
2019-03-09T00:48:08.900Z,0.00
2019-03-09T00:49:08.886Z,0.00
2019-03-09T00:50:08.882Z,0.00
2019-03-09T00:51:08.899Z,0.00
2019-03-09T00:52:08.848Z,0.00
2019-03-09T00:53:08.852Z,0.00
2019-03-09T00:54:08.897Z,0.00
2019-03-09T00:55:08.859Z,0.00
2019-03-09T00:56:08.811Z,0.00
2019-03-09T00:57:08.849Z,0.00
2019-03-09T00:58:08.808Z,0.00
2019-03-09T00:59:08.796Z,0.00
2019-03-09T01:00:08.803Z,0.00
2019-03-09T01:01:08.802Z,0.00
2019-03-09T01:02:08.798Z,0.00
2019-03-09T01:03:08.843Z,0.00
2019-03-09T01:04:08.755Z,0.00
2019-03-09T01:05:08.774Z,0.00
2019-03-09T01:06:08.741Z,0.00
2019-03-09T01:07:08.725Z,0.00
2019-03-09T01:08:08.745Z,0.00
2019-03-09T01:09:08.725Z,0.00
2019-03-09T01:10:08.725Z,0.00
2019-03-09T01:11:08.739Z,0.00
2019-03-09T01:12:08.709Z,0.00
2019-03-09T01:13:08.684Z,0.00
2019-03-09T01:14:08.693Z,0.00
2019-03-09T01:15:08.677Z,0.00
2019-03-09T01:16:08.674Z,0.00
2019-03-09T01:17:08.677Z,0.00
2019-03-09T01:18:08.713Z,0.00
2019-03-09T01:19:08.697Z,0.00
2019-03-09T01:20:08.657Z,0.00
2019-03-09T01:21:08.693Z,0.00
2019-03-09T01:22:08.654Z,0.00
2019-03-09T01:23:08.647Z,0.00
2019-03-09T01:24:08.632Z,0.00
2019-03-09T01:25:08.637Z,0.00
2019-03-09T01:26:08.620Z,0.00
2019-03-09T01:27:08.608Z,0.00
2019-03-09T01:28:08.581Z,0.00
2019-03-09T01:29:08.582Z,0.00
2019-03-09T01:30:08.565Z,0.00
2019-03-09T01:31:08.578Z,0.00
2019-03-09T01:32:08.577Z,0.00
2019-03-09T01:33:08.541Z,0.00
2019-03-09T01:34:08.570Z,0.00
2019-03-09T01:35:08.563Z,0.00
2019-03-09T01:36:08.521Z,0.00
2019-03-09T01:37:08.522Z,0.00
2019-03-09T01:38:08.514Z,0.00
2019-03-09T01:39:08.530Z,0.00
2019-03-09T01:40:08.524Z,0.00
2019-03-09T01:41:08.492Z,0.00
2019-03-09T01:42:08.484Z,0.00
2019-03-09T01:43:08.476Z,0.00
2019-03-09T01:44:08.474Z,0.00
2019-03-09T01:45:08.460Z,0.00
2019-03-09T01:46:08.470Z,0.00
2019-03-09T01:47:08.478Z,0.00
2019-03-09T01:48:08.463Z,0.00
2019-03-09T01:49:08.492Z,0.00
2019-03-09T01:50:08.420Z,0.00
2019-03-09T01:51:08.418Z,0.00
2019-03-09T01:52:08.410Z,0.00
2019-03-09T01:53:08.436Z,0.00
2019-03-09T01:54:08.405Z,0.00
2019-03-09T01:55:08.386Z,0.00
2019-03-09T01:56:08.375Z,0.00
2019-03-09T01:57:08.398Z,0.00
2019-03-09T01:58:08.370Z,0.00
2019-03-09T01:59:08.363Z,0.00
2019-03-09T02:00:08.363Z,0.00
2019-03-09T02:01:08.359Z,0.00
2019-03-09T02:02:08.355Z,0.00
2019-03-09T02:03:08.353Z,0.00
2019-03-09T02:04:08.317Z,0.00
2019-03-09T02:05:08.338Z,0.00
2019-03-09T02:06:08.314Z,0.00
2019-03-09T02:07:08.323Z,0.00
2019-03-09T02:08:08.295Z,0.00
2019-03-09T02:09:08.288Z,0.00
2019-03-09T02:10:08.300Z,0.00
2019-03-09T02:11:08.279Z,0.00
2019-03-09T02:12:08.296Z,0.00
2019-03-09T02:13:08.261Z,0.00
2019-03-09T02:14:08.263Z,0.00
2019-03-09T02:15:08.277Z,0.00
2019-03-09T02:16:08.314Z,0.00
2019-03-09T02:17:08.292Z,0.00
2019-03-09T02:18:08.290Z,0.00
2019-03-09T02:19:08.222Z,0.00
2019-03-09T02:20:08.234Z,0.00
2019-03-09T02:21:08.236Z,0.00
2019-03-09T02:22:08.256Z,0.00
2019-03-09T02:23:08.213Z,0.00
2019-03-09T02:24:08.189Z,0.00
2019-03-09T02:25:08.234Z,0.00
2019-03-09T02:26:08.189Z,0.00
2019-03-09T02:27:08.173Z,0.00
2019-03-09T02:28:08.185Z,0.00
2019-03-09T02:29:08.214Z,0.00
2019-03-09T02:30:08.160Z,0.00
2019-03-09T02:31:08.175Z,0.00
2019-03-09T02:32:08.156Z,0.00
2019-03-09T02:33:08.150Z,0.00
2019-03-09T02:34:08.182Z,0.00
2019-03-09T02:35:08.108Z,0.00
2019-03-09T02:36:08.168Z,0.00
2019-03-09T02:37:08.122Z,0.00
2019-03-09T02:38:08.110Z,0.00
2019-03-09T02:39:08.149Z,0.00
2019-03-09T02:40:08.095Z,0.00
2019-03-09T02:41:08.086Z,0.00
2019-03-09T02:42:08.129Z,0.00
2019-03-09T02:43:08.135Z,0.00
2019-03-09T02:44:08.140Z,0.00
2019-03-09T02:45:08.080Z,0.00
2019-03-09T02:46:08.087Z,0.00
2019-03-09T02:47:08.127Z,0.00
2019-03-09T02:48:08.004Z,0.00
2019-03-09T02:49:08.065Z,0.00
2019-03-09T02:50:08.083Z,0.00
2019-03-09T02:51:08.050Z,0.00
2019-03-09T02:52:07.976Z,0.00
2019-03-09T02:53:07.998Z,0.00
2019-03-09T02:54:07.985Z,0.00
2019-03-09T02:55:08.018Z,0.00
2019-03-09T02:56:08.001Z,0.00
2019-03-09T03:13:47.905Z,0.00
2019-03-09T03:14:47.756Z,0.00
2019-03-09T03:15:47.777Z,0.00
2019-03-09T03:16:47.698Z,0.00
2019-03-09T03:17:47.765Z,0.00
2019-03-09T03:18:47.662Z,0.00
2019-03-09T03:19:47.714Z,0.00
2019-03-09T03:20:47.650Z,0.00
2019-03-09T03:21:47.634Z,0.00
2019-03-09T03:22:47.682Z,0.00
2019-03-09T03:23:47.632Z,0.00
2019-03-09T03:24:47.596Z,0.00
2019-03-09T03:25:47.670Z,0.00
2019-03-09T03:26:47.601Z,0.00
2019-03-09T03:27:47.565Z,0.00
2019-03-09T03:28:47.552Z,0.00
2019-03-09T03:29:47.550Z,0.00
2019-03-09T03:30:47.553Z,0.00
2019-03-09T03:31:47.540Z,0.00
2019-03-09T03:32:47.556Z,0.00
2019-03-09T03:33:47.522Z,0.00
2019-03-09T03:34:47.536Z,0.00
2019-03-09T03:35:47.544Z,0.00
2019-03-09T03:36:47.540Z,0.00
2019-03-09T03:37:47.512Z,0.00
2019-03-09T03:38:47.484Z,0.00
2019-03-09T03:39:47.473Z,0.00
2019-03-09T03:40:47.481Z,0.00
2019-03-09T03:41:47.458Z,0.00
2019-03-09T03:42:47.488Z,0.00
2019-03-09T03:43:47.451Z,0.00
2019-03-09T03:44:47.477Z,0.00
2019-03-09T03:45:47.435Z,0.00
2019-03-09T03:46:47.446Z,0.00
2019-03-09T03:47:47.414Z,0.00
2019-03-09T03:48:47.405Z,0.00
2019-03-09T03:49:47.416Z,0.00
2019-03-09T03:50:47.385Z,0.00
2019-03-09T03:51:47.383Z,0.00
2019-03-09T03:52:47.386Z,0.00
2019-03-09T03:53:47.383Z,0.00
2019-03-09T03:54:47.396Z,0.00
2019-03-09T03:55:47.359Z,0.00
2019-03-09T03:56:47.737Z,0.00
2019-03-09T03:57:47.339Z,0.00
2019-03-09T03:58:47.354Z,0.00
2019-03-09T03:59:47.354Z,0.00
2019-03-09T04:00:47.366Z,0.00
2019-03-09T04:01:47.348Z,0.00
2019-03-09T04:02:47.321Z,0.00
2019-03-09T04:03:47.316Z,0.00
2019-03-09T04:04:47.318Z,0.00
2019-03-09T04:05:47.278Z,0.00
2019-03-09T04:06:47.304Z,0.00
2019-03-09T04:07:47.320Z,0.00
2019-03-09T04:08:47.282Z,0.00
2019-03-09T04:09:47.289Z,0.00
2019-03-09T04:10:47.412Z,0.00
2019-03-09T04:11:47.241Z,0.00
2019-03-09T04:12:47.267Z,0.00
2019-03-09T04:13:47.222Z,0.00
2019-03-09T04:14:47.248Z,0.00
2019-03-09T04:15:47.271Z,0.00
2019-03-09T04:16:47.242Z,0.00
2019-03-09T04:17:47.200Z,0.00
2019-03-09T04:18:47.223Z,0.00
2019-03-09T04:19:47.203Z,0.00
2019-03-09T04:20:47.176Z,0.00
2019-03-09T04:21:47.166Z,0.00
2019-03-09T04:22:47.254Z,0.00
2019-03-09T04:23:47.179Z,0.00
2019-03-09T04:24:47.137Z,0.00
2019-03-09T04:25:47.142Z,0.00
2019-03-09T04:26:47.145Z,0.00
2019-03-09T04:27:47.126Z,0.00
2019-03-09T04:28:47.112Z,0.00
2019-03-09T04:29:47.105Z,0.00
2019-03-09T04:30:47.121Z,0.00
2019-03-09T04:31:47.082Z,0.00
2019-03-09T04:32:47.076Z,0.00
2019-03-09T04:33:47.069Z,0.00
2019-03-09T04:34:47.065Z,0.00
2019-03-09T04:35:47.052Z,0.00
2019-03-09T04:36:47.064Z,0.00
2019-03-09T04:37:47.034Z,0.00
2019-03-09T04:38:47.069Z,0.00
2019-03-09T04:39:47.036Z,0.00
2019-03-09T04:40:47.015Z,0.00
2019-03-09T04:41:47.019Z,0.00
2019-03-09T04:42:47.024Z,0.00
2019-03-09T04:43:47.017Z,0.00
2019-03-09T04:44:47.023Z,0.00
2019-03-09T04:45:47.013Z,0.00
2019-03-09T04:46:47.016Z,0.00
2019-03-09T04:47:46.968Z,0.00
2019-03-09T04:48:46.954Z,0.00
2019-03-09T04:49:46.942Z,0.00
2019-03-09T04:50:46.953Z,0.00
2019-03-09T04:51:46.967Z,0.00
2019-03-09T04:52:46.937Z,0.00
2019-03-09T04:53:46.954Z,0.00
2019-03-09T04:54:46.909Z,0.00
2019-03-09T04:55:46.901Z,0.00
2019-03-09T04:56:46.909Z,0.00
2019-03-09T04:57:46.910Z,0.00
2019-03-09T04:58:46.940Z,0.00
2019-03-09T04:59:46.870Z,0.00
2019-03-09T05:00:46.877Z,0.00
2019-03-09T05:01:46.879Z,0.00
2019-03-09T05:02:46.843Z,0.00
2019-03-09T05:03:46.841Z,0.00
2019-03-09T05:04:46.883Z,0.00
2019-03-09T05:05:46.892Z,0.00
2019-03-09T05:06:46.833Z,0.00
2019-03-09T05:07:46.802Z,0.00
2019-03-09T05:08:46.794Z,0.00
2019-03-09T05:09:46.799Z,0.00
2019-03-09T05:10:46.787Z,0.00
2019-03-09T05:11:46.796Z,0.00
2019-03-09T05:12:46.779Z,0.00
2019-03-09T05:13:46.788Z,0.00
2019-03-09T05:14:46.787Z,0.00
2019-03-09T05:15:46.741Z,0.00
2019-03-09T05:16:46.783Z,0.00
2019-03-09T05:17:46.743Z,0.00
2019-03-09T05:18:46.743Z,0.00
2019-03-09T05:19:46.743Z,0.00
2019-03-09T05:20:46.747Z,0.00
2019-03-09T05:21:46.689Z,0.00
2019-03-09T05:22:46.793Z,0.00
2019-03-09T05:23:46.741Z,0.00
2019-03-09T05:24:46.679Z,0.00
2019-03-09T05:25:46.675Z,0.00
2019-03-09T05:26:46.727Z,0.00
2019-03-09T05:27:46.686Z,0.00
2019-03-09T05:28:46.636Z,0.00
2019-03-09T05:29:46.680Z,0.00
2019-03-09T05:30:46.645Z,0.00
2019-03-09T05:31:46.695Z,0.00
2019-03-09T05:32:46.613Z,0.00
2019-03-09T05:33:46.605Z,0.00
2019-03-09T05:34:46.630Z,0.00
2019-03-09T05:35:46.621Z,0.00
2019-03-09T05:36:46.625Z,0.00
2019-03-09T05:37:46.571Z,0.00
2019-03-09T05:38:46.570Z,0.00
2019-03-09T05:39:46.546Z,0.00
2019-03-09T05:40:46.558Z,0.00
2019-03-09T05:41:46.551Z,4.00
2019-03-09T05:42:46.524Z,4.00
2019-03-09T05:43:46.519Z,0.00
2019-03-09T05:44:46.526Z,4.00
2019-03-09T05:45:46.502Z,4.00
2019-03-09T05:46:46.512Z,8.00
2019-03-09T05:47:46.488Z,4.00
2019-03-09T05:48:46.513Z,8.00
2019-03-09T05:49:46.518Z,8.00
2019-03-09T05:50:46.507Z,4.00
2019-03-09T05:51:46.451Z,8.00
2019-03-09T05:52:46.454Z,8.00
2019-03-09T05:53:46.454Z,8.00
2019-03-09T05:54:46.433Z,12.00
2019-03-09T05:55:46.464Z,12.00
2019-03-09T05:56:46.414Z,12.00
2019-03-09T05:57:46.402Z,16.00
2019-03-09T05:58:46.418Z,16.00
2019-03-09T05:59:46.385Z,20.00
2019-03-09T06:00:46.384Z,16.00
2019-03-09T06:01:46.383Z,20.00
2019-03-09T06:02:46.382Z,20.00
2019-03-09T06:03:46.356Z,20.00
2019-03-09T06:04:46.379Z,24.00
2019-03-09T06:05:46.362Z,24.00
2019-03-09T06:06:46.327Z,28.00
2019-03-09T06:07:46.324Z,32.00
2019-03-09T06:08:46.342Z,36.00
2019-03-09T06:09:46.340Z,40.00
2019-03-09T06:10:46.303Z,44.00
2019-03-09T06:11:46.290Z,44.00
2019-03-09T06:12:46.303Z,48.00
2019-03-09T06:13:46.287Z,48.00
2019-03-09T06:14:46.275Z,52.00
2019-03-09T06:15:46.300Z,56.00
2019-03-09T06:16:46.275Z,56.00
2019-03-09T06:17:46.278Z,56.00
2019-03-09T06:18:46.250Z,52.00
2019-03-09T06:19:46.225Z,52.00
2019-03-09T06:20:46.245Z,52.00
2019-03-09T06:21:46.225Z,56.00
2019-03-09T06:22:46.219Z,64.00
2019-03-09T06:23:46.189Z,68.00
2019-03-09T06:24:46.192Z,72.00
2019-03-09T06:25:46.201Z,76.00
2019-03-09T06:26:46.165Z,76.00
2019-03-09T06:27:46.176Z,72.00
2019-03-09T06:28:46.173Z,76.00
2019-03-09T06:29:46.185Z,76.00
2019-03-09T06:30:46.189Z,76.00
2019-03-09T06:31:46.202Z,76.00
2019-03-09T06:32:46.142Z,72.00
2019-03-09T06:33:46.134Z,88.00
2019-03-09T06:34:46.099Z,92.00
2019-03-09T06:35:46.103Z,104.00
2019-03-09T06:36:46.122Z,120.00
2019-03-09T06:37:46.066Z,136.00
2019-03-09T06:38:46.113Z,144.00
2019-03-09T06:39:46.117Z,164.00
2019-03-09T06:40:46.067Z,172.00
2019-03-09T06:41:46.078Z,168.00
2019-03-09T06:42:46.080Z,176.00
2019-03-09T06:43:46.014Z,180.00
2019-03-09T06:44:46.019Z,180.00
2019-03-09T06:45:46.006Z,184.00
2019-03-09T06:46:45.991Z,208.00
2019-03-09T06:47:46.023Z,228.00
2019-03-09T06:48:46.010Z,248.00
2019-03-09T06:49:46.008Z,224.00
2019-03-09T06:50:45.963Z,236.00
2019-03-09T06:51:45.965Z,260.00
2019-03-09T06:52:45.990Z,284.00
2019-03-09T06:53:45.933Z,352.00
2019-03-09T06:54:45.974Z,380.00
2019-03-09T06:55:45.941Z,360.00
2019-03-09T06:56:45.937Z,396.00
2019-03-09T06:57:45.937Z,392.00
2019-03-09T06:58:45.987Z,376.00
2019-03-09T06:59:45.914Z,392.00
2019-03-09T07:00:46.002Z,308.00
2019-03-09T07:01:45.891Z,356.00
2019-03-09T07:02:45.986Z,348.00
2019-03-09T07:03:45.853Z,352.00
2019-03-09T07:04:45.948Z,396.00
2019-03-09T07:05:45.838Z,468.00
2019-03-09T07:06:45.983Z,552.00
2019-03-09T07:07:45.841Z,652.00
2019-03-09T07:08:45.864Z,684.00
2019-03-09T07:09:45.817Z,728.00
2019-03-09T07:10:45.800Z,804.00
2019-03-09T07:11:45.779Z,848.00
2019-03-09T07:12:45.799Z,872.00
2019-03-09T07:13:52.936Z,816.00
2019-03-09T07:14:45.797Z,776.00
2019-03-09T07:15:45.779Z,740.00
2019-03-09T07:16:45.757Z,784.00
2019-03-09T07:17:45.734Z,760.00
2019-03-09T07:18:45.725Z,652.00
2019-03-09T07:19:45.715Z,640.00
2019-03-09T07:20:45.723Z,648.00
2019-03-09T07:21:45.733Z,660.00
2019-03-09T07:22:45.718Z,700.00
2019-03-09T07:23:45.707Z,668.00
2019-03-09T07:24:45.672Z,676.00
2019-03-09T07:25:45.686Z,724.00
2019-03-09T07:26:45.658Z,784.00
2019-03-09T07:27:45.659Z,808.00
2019-03-09T07:28:45.671Z,840.00
2019-03-09T07:29:45.633Z,868.00
2019-03-09T07:30:45.656Z,804.00
2019-03-09T07:31:45.655Z,976.00
2019-03-09T07:32:45.679Z,1024.00
2019-03-09T07:33:45.612Z,940.00
2019-03-09T07:34:45.594Z,872.00
2019-03-09T07:35:45.624Z,1172.00
2019-03-09T07:36:45.602Z,1296.00
2019-03-09T07:37:45.609Z,1336.00
2019-03-09T07:38:45.565Z,1624.00
2019-03-09T07:39:45.571Z,1684.00
2019-03-09T07:40:45.553Z,1716.00
2019-03-09T07:41:45.547Z,1916.00
2019-03-09T07:42:45.551Z,2244.00
2019-03-09T07:43:45.568Z,2168.00
2019-03-09T07:44:45.561Z,1988.00
2019-03-09T07:45:45.538Z,1860.00
2019-03-09T07:46:45.528Z,1756.00
2019-03-09T07:47:45.501Z,1484.00
2019-03-09T07:48:45.483Z,1380.00
2019-03-09T07:49:45.548Z,1564.00
2019-03-09T07:50:45.479Z,2012.00
2019-03-09T07:51:45.501Z,2172.00
2019-03-09T07:52:45.454Z,2444.00
2019-03-09T07:53:45.442Z,2612.00
2019-03-09T07:54:45.451Z,2420.00
2019-03-09T07:55:45.433Z,2156.00
2019-03-09T07:56:45.429Z,2068.00
2019-03-09T07:57:45.420Z,1940.00
2019-03-09T07:58:45.433Z,2076.00
2019-03-09T07:59:45.430Z,2160.00
2019-03-09T08:00:45.420Z,1756.00
2019-03-09T08:01:45.444Z,1444.00
2019-03-09T08:02:45.376Z,1444.00
2019-03-09T08:03:45.386Z,1420.00
2019-03-09T08:04:45.396Z,1516.00
2019-03-09T08:05:45.379Z,1696.00
2019-03-09T08:06:45.385Z,1484.00
2019-03-09T08:07:45.380Z,1392.00
2019-03-09T08:08:45.338Z,1236.00
2019-03-09T08:09:45.360Z,1412.00
2019-03-09T08:10:45.321Z,1728.00
2019-03-09T08:11:45.345Z,1584.00
2019-03-09T08:12:45.356Z,1528.00
2019-03-09T08:13:45.318Z,1420.00
2019-03-09T08:14:45.295Z,1472.00
2019-03-09T08:15:45.293Z,2000.00
2019-03-09T08:16:45.279Z,2188.00
2019-03-09T08:17:45.279Z,2048.00
2019-03-09T08:18:45.401Z,2092.00
2019-03-09T08:19:45.284Z,2112.00
2019-03-09T08:20:45.267Z,1784.00
2019-03-09T08:21:45.270Z,1980.00
2019-03-09T08:22:45.237Z,2060.00
2019-03-09T08:23:45.242Z,2100.00
2019-03-09T08:24:45.219Z,1952.00
2019-03-09T08:25:45.450Z,2032.00
2019-03-09T08:26:45.217Z,1976.00
2019-03-09T08:27:45.235Z,1884.00
2019-03-09T08:28:45.228Z,2092.00
2019-03-09T08:29:54.034Z,2068.00
2019-03-09T08:31:49.690Z,2324.00
2019-03-09T08:32:49.673Z,2360.00
2019-03-09T08:33:49.653Z,2536.00
2019-03-09T08:34:49.678Z,2308.00
2019-03-09T08:35:49.665Z,2436.00
2019-03-09T08:36:49.628Z,2668.00
2019-03-09T08:37:49.636Z,2660.00
2019-03-09T08:38:49.638Z,2624.00
2019-03-09T08:39:49.604Z,2560.00
2019-03-09T08:40:49.607Z,2068.00
2019-03-09T08:41:49.648Z,2512.00
2019-03-09T08:42:49.603Z,2400.00
2019-03-09T08:43:49.618Z,2324.00
2019-03-09T08:44:49.575Z,2256.00
2019-03-09T08:45:49.655Z,2264.00
2019-03-09T08:46:49.622Z,1976.00
2019-03-09T08:47:52.502Z,1976.00
2019-03-09T08:48:49.552Z,1780.00
2019-03-09T08:49:49.556Z,2136.00
2019-03-09T08:50:49.545Z,1828.00
2019-03-09T08:53:31.249Z,1480.00
2019-03-09T08:54:37.730Z,1160.00
2019-03-09T08:56:34.652Z,1056.00
2019-03-09T08:57:43.323Z,1024.00
2019-03-09T08:59:48.150Z,1432.00
2019-03-09T09:00:47.979Z,1492.00
2019-03-09T09:02:43.552Z,1708.00
2019-03-09T09:03:43.528Z,1652.00
2019-03-09T09:04:43.524Z,1868.00
2019-03-09T09:05:43.579Z,1756.00
2019-03-09T09:06:43.533Z,1912.00
2019-03-09T09:07:43.512Z,1908.00
2019-03-09T09:08:43.504Z,1828.00
2019-03-09T09:09:43.487Z,1796.00
2019-03-09T09:10:43.505Z,1812.00
2019-03-09T09:11:43.468Z,1736.00
2019-03-09T09:12:45.435Z,1724.00
2019-03-09T09:13:43.474Z,1720.00
2019-03-09T09:14:43.472Z,1716.00
2019-03-09T09:15:43.504Z,1696.00
2019-03-09T09:16:43.477Z,1828.00
2019-03-09T09:17:43.459Z,1584.00
2019-03-09T09:18:43.470Z,1376.00
2019-03-09T09:19:43.447Z,1108.00
2019-03-09T09:20:43.419Z,880.00
2019-03-09T09:21:43.416Z,812.00
2019-03-09T09:22:43.407Z,812.00
2019-03-09T09:23:43.425Z,828.00
2019-03-09T09:24:43.402Z,784.00
2019-03-09T09:25:43.381Z,844.00
2019-03-09T09:26:52.096Z,1240.00
2019-03-09T09:28:47.870Z,728.00
2019-03-09T09:29:47.865Z,788.00
2019-03-09T09:30:47.878Z,924.00
2019-03-09T09:31:47.944Z,1044.00
2019-03-09T09:32:47.858Z,1056.00
2019-03-09T09:33:47.836Z,980.00
2019-03-09T09:34:47.814Z,984.00
2019-03-09T09:35:47.823Z,1048.00
2019-03-09T09:36:47.820Z,1016.00
2019-03-09T09:37:47.786Z,1032.00
2019-03-09T09:38:47.791Z,1084.00
2019-03-09T09:39:47.782Z,1076.00
2019-03-09T09:40:47.776Z,1064.00
2019-03-09T09:41:47.779Z,1084.00
2019-03-09T09:42:47.765Z,980.00
2019-03-09T09:43:47.762Z,920.00
2019-03-09T09:44:47.767Z,896.00
2019-03-09T09:45:47.749Z,816.00
2019-03-09T09:46:47.743Z,840.00
2019-03-09T09:47:47.749Z,744.00
2019-03-09T09:48:47.725Z,716.00
2019-03-09T09:49:47.727Z,732.00
2019-03-09T09:50:47.726Z,728.00
2019-03-09T09:51:47.732Z,740.00
2019-03-09T09:52:47.718Z,852.00
2019-03-09T09:53:47.712Z,932.00
2019-03-09T09:54:47.693Z,972.00
2019-03-09T09:55:47.706Z,1076.00
2019-03-09T09:56:47.686Z,1144.00
2019-03-09T09:57:47.749Z,1136.00
2019-03-09T09:58:47.683Z,1040.00
2019-03-09T09:59:47.681Z,1156.00
2019-03-09T10:00:47.642Z,1232.00
2019-03-09T10:01:47.648Z,1240.00
2019-03-09T10:02:47.634Z,1160.00
2019-03-09T10:03:47.661Z,1084.00
2019-03-09T10:04:47.619Z,1024.00
2019-03-09T10:05:47.613Z,980.00
2019-03-09T10:06:47.614Z,1020.00
2019-03-09T10:07:47.611Z,1024.00
2019-03-09T10:08:47.614Z,992.00
2019-03-09T10:09:47.616Z,1092.00
2019-03-09T10:10:47.598Z,1204.00
2019-03-09T10:11:47.583Z,1244.00
2019-03-09T10:12:47.577Z,1344.00
2019-03-09T10:13:47.578Z,1264.00
2019-03-09T10:14:47.566Z,1272.00
2019-03-09T10:15:47.580Z,1332.00
2019-03-09T10:16:47.566Z,1340.00
2019-03-09T10:17:47.538Z,1252.00
2019-03-09T10:18:47.537Z,1256.00
2019-03-09T10:19:47.562Z,1204.00
2019-03-09T10:20:47.562Z,1108.00
2019-03-09T10:21:47.526Z,1092.00
2019-03-09T10:22:47.537Z,1168.00
2019-03-09T10:23:47.558Z,1132.00
2019-03-09T10:24:47.532Z,1020.00
2019-03-09T10:25:47.533Z,1016.00
2019-03-09T10:26:47.494Z,964.00
2019-03-09T10:27:47.528Z,900.00
2019-03-09T10:28:47.496Z,832.00
2019-03-09T10:29:47.472Z,788.00
2019-03-09T10:30:47.503Z,776.00
2019-03-09T10:31:47.469Z,808.00
2019-03-09T10:32:47.494Z,844.00
2019-03-09T10:33:47.486Z,892.00
2019-03-09T10:34:47.513Z,956.00
2019-03-09T10:35:47.435Z,976.00
2019-03-09T10:36:47.431Z,952.00
2019-03-09T10:37:47.440Z,996.00
2019-03-09T10:38:47.478Z,1008.00
2019-03-09T10:39:47.438Z,996.00
2019-03-09T10:40:47.512Z,1072.00
2019-03-09T10:41:47.439Z,936.00
2019-03-09T10:42:47.395Z,988.00
2019-03-09T10:43:47.447Z,884.00
2019-03-09T10:44:49.696Z,860.00
2019-03-09T10:45:47.383Z,808.00
2019-03-09T10:46:47.480Z,824.00
2019-03-09T10:47:47.405Z,816.00
2019-03-09T10:48:47.614Z,760.00
2019-03-09T10:49:47.357Z,776.00
2019-03-09T10:50:47.610Z,704.00
2019-03-09T10:51:47.337Z,764.00
2019-03-09T10:52:47.450Z,840.00
2019-03-09T10:53:47.326Z,804.00
2019-03-09T10:54:47.335Z,780.00
2019-03-09T10:55:47.327Z,736.00
2019-03-09T10:56:47.345Z,688.00
2019-03-09T10:57:47.350Z,668.00
2019-03-09T10:58:47.295Z,632.00
2019-03-09T10:59:47.283Z,624.00
2019-03-09T11:00:47.284Z,672.00
2019-03-09T11:01:47.283Z,704.00
2019-03-09T11:02:47.279Z,752.00
2019-03-09T11:03:47.425Z,708.00
2019-03-09T11:04:47.313Z,692.00
2019-03-09T11:05:47.258Z,660.00
2019-03-09T11:06:47.316Z,700.00
2019-03-09T11:07:47.242Z,732.00
2019-03-09T11:08:47.255Z,760.00
2019-03-09T11:09:47.243Z,804.00
2019-03-09T11:10:47.240Z,816.00
2019-03-09T11:11:47.263Z,812.00
2019-03-09T11:12:47.235Z,796.00
2019-03-09T11:13:51.793Z,868.00
2019-03-09T11:14:47.263Z,872.00
2019-03-09T11:15:47.197Z,948.00
2019-03-09T11:16:47.217Z,976.00
2019-03-09T11:17:47.184Z,1136.00
2019-03-09T11:18:47.223Z,1276.00
2019-03-09T11:19:47.252Z,1232.00
2019-03-09T11:20:47.206Z,1172.00
2019-03-09T11:21:47.190Z,1104.00
2019-03-09T11:22:47.166Z,1076.00
2019-03-09T11:23:47.227Z,972.00
2019-03-09T11:24:47.146Z,880.00
2019-03-09T11:25:47.341Z,892.00
2019-03-09T11:26:47.139Z,812.00
2019-03-09T11:27:47.142Z,812.00
2019-03-09T11:28:47.171Z,816.00
2019-03-09T11:29:47.110Z,872.00
2019-03-09T11:30:47.128Z,856.00
2019-03-09T11:31:47.105Z,876.00
2019-03-09T11:32:47.126Z,1052.00
2019-03-09T11:33:47.094Z,1096.00
2019-03-09T11:34:47.137Z,980.00
2019-03-09T11:35:47.157Z,988.00
2019-03-09T11:36:47.084Z,904.00
2019-03-09T11:37:47.089Z,932.00
2019-03-09T11:38:47.101Z,1108.00
2019-03-09T11:39:47.054Z,1164.00
2019-03-09T11:40:57.047Z,1156.00
2019-03-09T11:41:47.050Z,1064.00
2019-03-09T11:42:47.174Z,996.00
2019-03-09T11:43:47.058Z,1044.00
2019-03-09T11:44:47.057Z,1116.00
2019-03-09T11:45:47.052Z,1112.00
2019-03-09T11:46:47.016Z,1012.00
2019-03-09T11:47:47.008Z,948.00
2019-03-09T11:48:47.024Z,988.00
2019-03-09T11:49:47.052Z,1032.00
2019-03-09T11:50:47.003Z,1012.00
2019-03-09T11:51:47.077Z,1012.00
2019-03-09T11:52:47.014Z,1020.00
2019-03-09T11:53:47.000Z,1036.00
2019-03-09T11:54:46.974Z,1060.00
2019-03-09T11:55:46.977Z,1004.00
2019-03-09T11:56:46.964Z,928.00
2019-03-09T11:57:46.969Z,876.00
2019-03-09T11:58:46.950Z,844.00
2019-03-09T11:59:46.983Z,824.00
2019-03-09T12:00:46.999Z,784.00
2019-03-09T12:01:46.979Z,848.00
2019-03-09T12:02:46.927Z,908.00
2019-03-09T12:03:47.415Z,904.00
2019-03-09T12:04:47.384Z,904.00
2019-03-09T12:05:46.906Z,1048.00
2019-03-09T12:06:46.973Z,1208.00
2019-03-09T12:07:46.895Z,1288.00
2019-03-09T12:08:46.896Z,1248.00
2019-03-09T12:11:17.036Z,1132.00
2019-03-09T12:12:08.229Z,1112.00
2019-03-09T12:13:08.211Z,1108.00
2019-03-09T12:14:08.162Z,1100.00
2019-03-09T12:15:16.862Z,1160.00
2019-03-09T12:17:13.003Z,1500.00
2019-03-09T12:18:12.613Z,1644.00
2019-03-09T12:19:12.616Z,1724.00
2019-03-09T12:20:12.633Z,1788.00
2019-03-09T12:21:12.616Z,1732.00
2019-03-09T12:22:12.578Z,1640.00
2019-03-09T12:23:12.627Z,1584.00
2019-03-09T12:24:17.508Z,1552.00
2019-03-09T12:25:12.598Z,1488.00
2019-03-09T12:26:12.586Z,1444.00
2019-03-09T12:27:12.551Z,1464.00
2019-03-09T12:28:12.581Z,1424.00
2019-03-09T12:29:12.567Z,1272.00
2019-03-09T12:30:12.553Z,1148.00
2019-03-09T12:31:21.184Z,1028.00
2019-03-09T12:33:17.022Z,920.00
2019-03-09T12:34:17.015Z,804.00
2019-03-09T12:35:17.002Z,848.00
2019-03-09T12:37:56.422Z,848.00
2019-03-09T12:38:56.407Z,772.00
2019-03-09T12:39:56.428Z,676.00
2019-03-09T12:40:56.435Z,672.00
2019-03-09T12:41:56.406Z,692.00
2019-03-09T12:42:56.381Z,704.00
2019-03-09T12:43:56.407Z,700.00
2019-03-09T12:44:56.381Z,776.00
2019-03-09T12:45:56.357Z,860.00
2019-03-09T12:46:56.373Z,940.00
2019-03-09T12:47:56.366Z,968.00
2019-03-09T12:48:56.344Z,948.00
2019-03-09T12:49:56.332Z,996.00
2019-03-09T12:50:56.353Z,996.00
2019-03-09T12:51:56.324Z,1012.00
2019-03-09T12:52:56.338Z,1004.00
2019-03-09T12:53:56.319Z,1048.00
2019-03-09T12:54:56.318Z,1036.00
2019-03-09T12:55:56.334Z,996.00
2019-03-09T12:56:56.291Z,856.00
2019-03-09T12:57:56.288Z,740.00
2019-03-09T12:58:56.299Z,668.00
2019-03-09T12:59:56.275Z,616.00
2019-03-09T13:00:56.280Z,576.00
2019-03-09T13:01:56.280Z,516.00
2019-03-09T13:02:56.292Z,492.00
2019-03-09T13:03:56.284Z,444.00
2019-03-09T13:04:56.268Z,404.00
2019-03-09T13:05:56.244Z,396.00
2019-03-09T13:06:56.241Z,388.00
2019-03-09T13:07:56.230Z,368.00
2019-03-09T13:08:56.227Z,340.00
2019-03-09T13:09:56.272Z,324.00
2019-03-09T13:10:56.309Z,320.00
2019-03-09T13:11:56.219Z,304.00
2019-03-09T13:12:56.214Z,284.00